Time;durP1;ratioP1;P1;durP2;ratioP2;P2;SDS_P1;SDS_P2;PMS_P1;PMS_P2;Temp;Humidity;BMP_temperature;BMP_pressure;BME280_temperature;BME280_humidity;BME280_pressure;Samples;Min_cycle;Max_cycle;Signal;HPM_P1;HPM_P2
2021/08/10 00:02:26;;;;;;;17.80;5.28;;;;;;;15.12;86.76;101386.78;5092883;28;20040;-69
2021/08/10 00:04:53;;;;;;;14.50;5.13;;;;;;;15.11;86.72;101384.28;5089608;28;20068;-67
2021/08/10 00:07:21;;;;;;;10.50;4.95;;;;;;;15.10;87.02;101379.97;5092775;28;20097;-69
2021/08/10 00:09:47;;;;;;;13.20;5.43;;;;;;;15.10;86.68;101383.47;5091609;28;20032;-67
2021/08/10 00:12:14;;;;;;;15.20;5.15;;;;;;;15.04;86.50;101373.41;5092056;28;20435;-67
2021/08/10 00:14:41;;;;;;;15.27;5.30;;;;;;;15.02;86.49;101372.75;5092309;28;20401;-69
2021/08/10 00:17:09;;;;;;;13.95;4.97;;;;;;;14.99;86.67;101373.13;5074842;28;20040;-69
2021/08/10 00:19:36;;;;;;;13.95;5.13;;;;;;;15.00;86.63;101372.09;5092216;28;20446;-69
2021/08/10 00:22:03;;;;;;;13.13;5.43;;;;;;;15.01;86.61;101381.78;5092843;28;20044;-68
2021/08/10 00:24:30;;;;;;;14.43;5.70;;;;;;;14.95;86.67;101388.66;5069597;28;20178;-68
2021/08/10 00:27:00;;;;;;;15.27;5.20;;;;;;;14.90;86.53;101379.47;5070727;28;20040;-68
2021/08/10 00:29:28;;;;;;;14.27;5.60;;;;;;;14.91;86.29;101384.63;5070037;28;20036;-68
2021/08/10 00:31:58;;;;;;;20.10;6.83;;;;;;;14.89;86.21;101383.94;5092591;28;20048;-68
2021/08/10 00:34:25;;;;;;;12.27;5.65;;;;;;;14.79;86.50;101377.97;5090827;28;20044;-68
2021/08/10 00:37:05;;;;;;;13.95;6.65;;;;;;;14.79;86.43;101380.63;5083132;28;20078;-68
2021/08/10 00:39:32;;;;;;;16.25;5.97;;;;;;;14.78;86.52;101378.94;5071671;28;20033;-69
2021/08/10 00:41:59;;;;;;;15.48;5.47;;;;;;;14.75;86.73;101382.78;5054162;28;20071;-68
2021/08/10 00:44:26;;;;;;;17.85;6.25;;;;;;;14.76;86.57;101384.44;5072269;28;20086;-69
2021/08/10 00:46:53;;;;;;;22.02;6.32;;;;;;;14.73;86.75;101384.78;5071140;28;20075;-69
2021/08/10 00:49:21;;;;;;;18.08;6.13;;;;;;;14.69;87.17;101385.28;5080629;28;20040;-68
2021/08/10 00:51:50;;;;;;;17.92;6.28;;;;;;;14.66;86.89;101386.47;5097513;28;20059;-69
2021/08/10 00:54:17;;;;;;;17.30;6.55;;;;;;;14.67;87.05;101374.75;5075817;28;20044;-69
2021/08/10 00:56:47;;;;;;;17.00;5.90;;;;;;;14.65;87.08;101373.28;5054799;28;20048;-68
2021/08/10 00:59:19;;;;;;;19.20;6.00;;;;;;;14.64;86.95;101372.41;5080447;28;20043;-68
2021/08/10 01:01:51;;;;;;;16.85;5.82;;;;;;;14.64;86.89;101368.91;5092327;28;20047;-68
2021/08/10 01:04:18;;;;;;;17.90;5.65;;;;;;;14.62;86.60;101371.75;5091076;28;20091;-68
2021/08/10 01:07:02;;;;;;;15.07;5.65;;;;;;;14.55;87.28;101358.22;5092146;28;20093;-68
2021/08/10 01:09:52;;;;;;;15.80;5.72;;;;;;;14.62;87.18;101370.91;5092161;28;20385;-68
2021/08/10 01:12:27;;;;;;;15.75;5.10;;;;;;;14.57;87.23;101363.34;5092190;28;20130;-68
2021/08/10 01:17:50;;;;;;;14.57;5.20;;;;;;;14.55;87.39;101368.03;5114089;27;20593;-68
2021/08/10 01:20:46;;;;;;;14.38;4.90;;;;;;;14.50;87.50;101371.22;5090899;28;20039;-67
2021/08/10 01:23:17;;;;;;;15.77;5.72;;;;;;;14.59;87.52;101367.59;5091847;28;20139;-68
2021/08/10 01:29:13;;;;;;;13.98;5.00;;;;;;;14.55;87.12;101355.53;5110511;27;20741;-67
2021/08/10 01:31:43;;;;;;;20.35;5.13;;;;;;;14.53;87.32;101348.69;5110168;28;20432;-67
2021/08/10 01:34:36;;;;;;;12.75;4.90;;;;;;;14.62;87.31;101358.41;5110378;28;20408;-69
2021/08/10 01:37:14;;;;;;;16.30;5.45;;;;;;;14.67;87.24;101356.06;5100943;28;20032;-67
2021/08/10 01:39:51;;;;;;;21.02;5.38;;;;;;;14.67;87.10;101352.56;5072144;28;20048;-67
2021/08/10 01:42:20;;;;;;;15.73;5.47;;;;;;;14.70;86.98;101347.75;5088641;28;20044;-67
2021/08/10 01:44:49;;;;;;;23.70;5.07;;;;;;;14.70;87.41;101347.75;5089736;28;20127;-68
2021/08/10 01:47:16;;;;;;;15.40;4.88;;;;;;;14.69;87.02;101347.91;5078319;28;20029;-69
2021/08/10 01:49:45;;;;;;;14.43;5.30;;;;;;;14.74;87.02;101334.88;5052165;28;20102;-69
2021/08/10 01:52:17;;;;;;;15.32;5.07;;;;;;;14.65;87.72;101333.22;5089992;28;20071;-69
2021/08/10 01:54:47;;;;;;;18.58;5.70;;;;;;;14.72;87.60;101344.91;5088522;28;20090;-69
2021/08/10 01:57:19;;;;;;;16.77;5.32;;;;;;;14.71;87.68;101346.72;5087587;28;20125;-69
2021/08/10 01:59:50;;;;;;;17.92;4.72;;;;;;;14.78;87.53;101341.56;5089284;28;20131;-68
2021/08/10 02:02:17;;;;;;;30.65;5.53;;;;;;;14.75;87.78;101332.06;5089539;28;20037;-68
2021/08/10 02:04:49;;;;;;;14.05;5.03;;;;;;;14.75;87.52;101336.53;5071734;28;20051;-68
2021/08/10 02:07:19;;;;;;;14.10;5.18;;;;;;;14.83;87.80;101343.75;5089218;28;20072;-68
2021/08/10 02:09:49;;;;;;;17.05;5.30;;;;;;;14.83;87.90;101335.72;5089704;28;20052;-68
2021/08/10 02:12:21;;;;;;;17.98;5.50;;;;;;;14.83;87.71;101336.56;5089621;28;20119;-68
2021/08/10 02:14:51;;;;;;;13.93;5.45;;;;;;;14.83;87.72;101336.56;5087888;28;20346;-69
2021/08/10 02:17:26;;;;;;;22.58;5.50;;;;;;;14.87;87.37;101329.03;5100760;28;20488;-68
2021/08/10 02:19:59;;;;;;;17.48;5.65;;;;;;;14.84;87.37;101335.53;5108083;28;20044;-68
2021/08/10 02:22:28;;;;;;;18.67;5.32;;;;;;;14.94;87.27;101336.22;5108292;28;20127;-68
2021/08/10 02:25:01;;;;;;;11.38;5.25;;;;;;;14.89;87.53;101341.22;5106320;28;20040;-68
2021/08/10 02:27:39;;;;;;;15.55;4.95;;;;;;;14.91;87.31;101344.53;5065006;28;20152;-69
2021/08/10 02:30:11;;;;;;;16.48;5.07;;;;;;;14.93;87.56;101353.22;5050991;28;20106;-69
2021/08/10 02:32:39;;;;;;;;;;;;;;;15.00;86.75;101357.91;5069131;28;20052;-68
2021/08/10 02:35:09;;;;;;;19.02;5.20;;;;;;;14.98;86.93;101356.22;5101245;28;19927;-69
2021/08/10 02:37:37;;;;;;;13.88;5.13;;;;;;;14.97;86.98;101362.59;5080307;28;20040;-68
2021/08/10 02:40:09;;;;;;;15.38;5.00;;;;;;;14.99;86.85;101362.44;5075249;28;20043;-68
2021/08/10 02:42:41;;;;;;;13.48;5.00;;;;;;;15.04;86.06;101369.94;5074908;28;20053;-68
2021/08/10 02:45:08;;;;;;;14.73;4.75;;;;;;;15.06;86.62;101371.44;5074174;28;20448;-68
2021/08/10 02:47:36;;;;;;;20.73;5.32;;;;;;;15.02;86.92;101371.94;5061062;28;20041;-68
2021/08/10 02:50:05;;;;;;;14.40;4.82;;;;;;;15.04;87.12;101377.94;5070399;28;20505;-68
2021/08/10 02:52:32;;;;;;;17.13;5.25;;;;;;;15.08;87.10;101381.94;5073256;28;20434;-68
2021/08/10 02:54:59;;;;;;;15.02;4.80;;;;;;;15.08;86.94;101384.59;5073344;28;20532;-69
2021/08/10 02:57:32;;;;;;;15.23;5.25;;;;;;;15.03;87.18;101401.16;5073447;28;20068;-69
2021/08/10 03:00:04;;;;;;;24.83;5.70;;;;;;;15.11;87.33;101433.22;5074831;28;20040;-68
2021/08/10 03:02:40;;;;;;;20.50;4.75;;;;;;;15.11;86.02;101438.56;5075001;28;20045;-69
2021/08/10 03:05:11;;;;;;;15.30;4.35;;;;;;;15.19;85.34;101432.41;5074750;28;20041;-69
2021/08/10 03:07:41;;;;;;;14.98;4.63;;;;;;;15.10;86.16;101436.06;5076010;28;20048;-68
2021/08/10 03:10:10;;;;;;;13.63;4.35;;;;;;;14.85;84.98;101419.19;5074693;28;20051;-68
2021/08/10 03:12:45;;;;;;;16.20;4.53;;;;;;;14.80;86.76;101432.19;5073366;28;20508;-68
2021/08/10 03:15:14;;;;;;;11.75;4.07;;;;;;;14.75;86.29;101432.69;5074649;28;20048;-68
2021/08/10 03:17:44;;;;;;;13.00;4.30;;;;;;;14.58;87.52;101421.97;5072855;28;20562;-68
2021/08/10 03:20:12;;;;;;;13.30;4.20;;;;;;;14.80;86.08;101416.19;5074201;28;20036;-68
2021/08/10 03:22:42;;;;;;;15.35;4.70;;;;;;;14.75;86.16;101409.50;5074716;28;20059;-68
2021/08/10 03:25:12;;;;;;;14.82;4.90;;;;;;;14.67;87.18;101401.47;5056757;28;20489;-68
2021/08/10 03:27:41;;;;;;;21.08;5.50;;;;;;;14.65;88.35;101403.47;5072496;28;20078;-68
2021/08/10 03:30:09;;;;;;;15.55;6.05;;;;;;;14.73;87.77;101407.97;5072948;28;20090;-67
2021/08/10 03:32:37;;;;;;;17.83;5.32;;;;;;;14.71;87.93;101407.31;5078230;28;20047;-67
2021/08/10 03:35:05;;;;;;;17.73;6.00;;;;;;;14.70;85.70;101409.16;5073669;28;20390;-68
2021/08/10 03:37:33;;;;;;;19.33;6.20;;;;;;;14.63;85.73;101401.97;5074146;28;20045;-68
2021/08/10 03:40:01;;;;;;;22.50;6.80;;;;;;;14.56;86.73;101407.09;5073867;28;20048;-68
2021/08/10 03:42:29;;;;;;;17.42;6.30;;;;;;;14.69;86.52;101412.81;5072259;28;20036;-68
2021/08/10 03:44:56;;;;;;;17.27;6.20;;;;;;;14.61;86.35;101410.16;5072562;28;20568;-68
2021/08/10 03:47:23;;;;;;;15.07;6.40;;;;;;;14.64;86.65;101415.13;5061627;28;20044;-68
2021/08/10 03:49:54;;;;;;;21.92;6.63;;;;;;;14.66;86.79;101420.31;5064427;28;20523;-68
2021/08/10 03:52:21;;;;;;;16.05;5.07;;;;;;;14.62;87.68;101411.78;5056190;28;20107;-68
2021/08/10 03:54:48;;;;;;;15.25;5.40;;;;;;;14.55;88.21;101411.59;5072204;28;20405;-69
2021/08/10 03:57:21;;;;;;;17.55;6.05;;;;;;;14.55;87.77;101406.25;5073663;28;20040;-69
2021/08/10 03:59:52;;;;;;;15.75;5.90;;;;;;;14.56;87.89;101412.44;5073344;28;20051;-69
2021/08/10 04:02:20;;;;;;;13.18;5.70;;;;;;;14.57;87.90;101398.06;5072664;28;20041;-69
2021/08/10 04:04:54;;;;;;;14.93;5.70;;;;;;;14.56;88.35;101391.91;5073753;28;20532;-68
2021/08/10 04:07:24;;;;;;;19.00;6.00;;;;;;;14.59;87.99;101382.78;5078110;28;20056;-68
2021/08/10 04:09:51;;;;;;;15.77;5.65;;;;;;;14.63;88.13;101373.44;5093206;28;20446;-68
2021/08/10 04:12:21;;;;;;;15.52;5.50;;;;;;;14.62;87.94;101370.91;5092144;28;20122;-68
2021/08/10 04:14:48;;;;;;;13.48;5.13;;;;;;;14.62;87.96;101365.56;5075769;28;20055;-68
2021/08/10 04:17:18;;;;;;;15.23;5.72;;;;;;;14.55;87.56;101355.53;5092718;28;20083;-68
2021/08/10 04:19:48;;;;;;;18.83;6.68;;;;;;;14.61;87.79;101359.41;5093240;28;20048;-68
2021/08/10 04:22:20;;;;;;;15.85;6.10;;;;;;;14.64;87.62;101364.41;5089707;28;20067;-69
2021/08/10 04:24:47;;;;;;;16.05;5.57;;;;;;;14.59;87.52;101364.09;5073223;28;20040;-68
2021/08/10 04:27:16;;;;;;;16.13;6.00;;;;;;;14.56;87.98;101361.72;5070154;28;20517;-68
2021/08/10 04:29:47;;;;;;;14.25;5.53;;;;;;;14.57;86.84;101364.25;5071780;28;20041;-68
2021/08/10 04:32:14;;;;;;;19.13;6.07;;;;;;;14.50;87.63;101368.53;5072280;28;20092;-68
2021/08/10 04:34:43;;;;;;;13.68;6.20;;;;;;;14.46;87.63;101363.69;5072722;28;20045;-68
2021/08/10 04:37:10;;;;;;;14.43;6.30;;;;;;;14.45;87.59;101356.69;5071073;28;20048;-68
2021/08/10 04:39:40;;;;;;;16.75;5.93;;;;;;;14.40;87.51;101360.66;5071480;28;20501;-68
2021/08/10 04:42:10;;;;;;;17.42;6.22;;;;;;;14.37;87.72;101360.16;5072688;28;20551;-68
2021/08/10 04:44:37;;;;;;;18.35;6.22;;;;;;;14.28;87.62;101361.13;5071697;28;20071;-68
2021/08/10 04:47:04;;;;;;;21.30;5.88;;;;;;;14.19;88.13;101365.66;5063617;28;20098;-68
2021/08/10 04:49:33;;;;;;;16.70;5.50;;;;;;;14.21;88.17;101371.66;5063654;28;20041;-68
2021/08/10 04:52:00;;;;;;;17.33;6.10;;;;;;;14.28;87.88;101374.47;5051553;28;20403;-68
2021/08/10 04:54:27;;;;;;;18.20;6.13;;;;;;;14.28;87.65;101364.66;5067983;28;20523;-68
2021/08/10 04:56:54;;;;;;;19.75;6.30;;;;;;;14.28;87.83;101366.47;5071230;28;20128;-68
2021/08/10 04:59:20;;;;;;;20.73;6.35;;;;;;;14.27;87.79;101365.66;5082395;28;20113;-68
2021/08/10 05:01:48;;;;;;;20.85;6.07;;;;;;;14.29;87.52;101360.16;5072096;28;20045;-68
2021/08/10 05:04:15;;;;;;;17.35;6.07;;;;;;;14.28;87.65;101370.00;5071401;28;20056;-68
2021/08/10 05:06:42;;;;;;;18.88;6.72;;;;;;;14.28;87.78;101382.50;5071036;28;20047;-69
2021/08/10 05:09:09;;;;;;;16.45;6.18;;;;;;;14.31;88.26;101387.50;5069610;28;20048;-68
2021/08/10 05:11:36;;;;;;;16.95;5.88;;;;;;;14.33;87.98;101386.34;5071240;28;20071;-68
2021/08/10 05:14:03;;;;;;;15.43;6.22;;;;;;;14.30;88.18;101386.69;5072649;28;20075;-68
2021/08/10 05:16:30;;;;;;;22.13;6.57;;;;;;;14.27;88.54;101383.50;5054162;28;20571;-68
2021/08/10 05:18:57;;;;;;;14.73;6.25;;;;;;;14.36;88.51;101385.19;5072479;28;20064;-68
2021/08/10 05:21:29;;;;;;;20.73;5.88;;;;;;;14.34;88.96;101388.03;5055427;28;20036;-69
2021/08/10 05:23:56;;;;;;;17.48;6.00;;;;;;;14.43;89.05;101396.88;5038325;28;20040;-68
2021/08/10 05:26:24;;;;;;;16.55;6.20;;;;;;;14.44;88.40;101405.72;5072234;28;20626;-68
2021/08/10 05:28:54;;;;;;;15.65;5.70;;;;;;;14.47;88.76;101410.75;5070683;28;20409;-68
2021/08/10 05:31:21;;;;;;;14.40;5.20;;;;;;;14.46;89.15;101425.94;5072110;28;20054;-69
2021/08/10 05:33:47;;;;;;;13.30;5.05;;;;;;;14.59;87.60;101429.00;5070922;28;20048;-69
2021/08/10 05:36:14;;;;;;;14.30;5.50;;;;;;;14.50;87.67;101423.78;5072151;28;20044;-68
2021/08/10 05:38:46;;;;;;;15.30;5.40;;;;;;;14.51;88.79;101423.59;5092231;28;20039;-68
2021/08/10 05:41:13;;;;;;;13.23;5.30;;;;;;;14.50;88.92;101421.94;5091946;28;20515;-68
2021/08/10 05:43:40;;;;;;;14.73;6.00;;;;;;;14.62;89.00;101418.97;5091046;28;20485;-68
2021/08/10 05:46:09;;;;;;;15.52;5.65;;;;;;;14.68;88.92;101419.16;5089242;28;20044;-68
2021/08/10 05:48:36;;;;;;;11.90;5.40;;;;;;;14.59;88.67;101418.31;5072381;28;20052;-68
2021/08/10 05:51:04;;;;;;;12.48;5.45;;;;;;;14.63;88.46;101418.81;5050855;28;20144;-68
2021/08/10 05:53:35;;;;;;;13.93;5.10;;;;;;;14.75;87.83;101422.84;5071195;28;20083;-68
2021/08/10 05:56:05;;;;;;;13.73;6.22;;;;;;;14.67;88.27;101428.16;5070793;28;20094;-69
2021/08/10 05:58:33;;;;;;;18.52;6.28;;;;;;;14.67;88.43;101435.34;5071924;28;20124;-69
2021/08/10 06:01:04;;;;;;;15.30;6.43;;;;;;;14.76;88.72;101432.53;5071846;28;20064;-68
2021/08/10 06:03:31;;;;;;;15.07;6.75;;;;;;;14.84;89.30;101430.84;5072272;28;20374;-68
2021/08/10 06:05:58;;;;;;;15.30;6.32;;;;;;;14.88;88.17;101429.53;5070667;28;20124;-68
2021/08/10 06:08:32;;;;;;;13.70;6.03;;;;;;;14.85;88.80;101425.34;5065731;28;20040;-68
2021/08/10 06:10:59;;;;;;;17.80;6.05;;;;;;;14.92;89.07;101415.69;5072035;28;20132;-67
2021/08/10 06:13:26;;;;;;;13.70;6.25;;;;;;;14.90;89.20;101420.34;5070542;28;20550;-68
2021/08/10 06:15:54;;;;;;;16.80;7.28;;;;;;;14.97;89.20;101408.00;5041755;28;20429;-69
2021/08/10 06:18:22;;;;;;;17.35;7.20;;;;;;;15.04;88.82;101410.00;5075908;28;20047;-69
2021/08/10 06:20:50;;;;;;;16.27;7.35;;;;;;;15.04;88.92;101415.34;5075580;28;20048;-70
2021/08/10 06:23:20;;;;;;;15.98;6.68;;;;;;;15.09;88.86;101408.50;5075530;28;20059;-69
2021/08/10 06:25:47;;;;;;;13.98;6.88;;;;;;;15.23;88.79;101422.22;5075978;28;20052;-68
2021/08/10 06:28:17;;;;;;;13.98;6.65;;;;;;;15.28;88.34;101419.84;5072897;28;20052;-69
2021/08/10 06:30:45;;;;;;;18.50;6.90;;;;;;;15.33;88.48;101412.16;5075545;28;20090;-68
2021/08/10 06:33:13;;;;;;;17.35;6.82;;;;;;;15.52;87.75;101414.47;5073766;28;20532;-68
2021/08/10 06:35:42;;;;;;;15.85;7.00;;;;;;;15.57;88.00;101410.44;5074876;28;20127;-68
2021/08/10 06:38:09;;;;;;;17.42;7.68;;;;;;;15.66;88.25;101409.41;5074028;28;20469;-68
2021/08/10 06:40:38;;;;;;;15.38;6.97;;;;;;;15.66;87.99;101412.09;5075252;28;20048;-68
2021/08/10 06:43:05;;;;;;;17.48;7.88;;;;;;;15.76;87.82;101407.41;5057575;28;20051;-69
2021/08/10 06:45:31;;;;;;;22.55;7.82;;;;;;;15.78;88.29;101408.09;5057506;28;20127;-69
2021/08/10 06:47:58;;;;;;;21.52;8.55;;;;;;;15.90;88.08;101411.22;5056648;28;20509;-67
2021/08/10 06:50:32;;;;;;;17.73;8.18;;;;;;;15.93;87.99;101411.72;5074003;28;20382;-67
2021/08/10 06:53:00;;;;;;;21.00;8.65;;;;;;;15.98;87.82;101411.19;5075045;28;20408;-68
2021/08/10 06:55:30;;;;;;;19.80;8.55;;;;;;;15.97;87.33;101414.03;5075072;28;20134;-67
2021/08/10 06:58:04;;;;;;;20.42;8.70;;;;;;;15.97;87.45;101414.88;5074909;28;20045;-67
2021/08/10 07:00:31;;;;;;;21.20;8.48;;;;;;;15.96;87.14;101421.22;5074772;28;20154;-68
2021/08/10 07:02:58;;;;;;;23.23;8.77;;;;;;;15.98;86.65;101418.38;5074459;28;20049;-68
2021/08/10 07:05:26;;;;;;;19.08;8.13;;;;;;;16.11;87.59;101416.81;5074751;28;20037;-67
2021/08/10 07:07:53;;;;;;;24.50;8.38;;;;;;;16.15;86.37;101428.00;5072975;28;20055;-67
2021/08/10 07:10:20;;;;;;;21.95;8.05;;;;;;;16.22;86.42;101428.16;5074295;28;20122;-67
2021/08/10 07:12:47;;;;;;;18.33;9.15;;;;;;;16.33;87.20;101421.56;5074640;28;20174;-67
2021/08/10 07:15:15;;;;;;;20.23;8.13;;;;;;;16.32;86.27;101431.44;5072594;28;20051;-67
2021/08/10 07:17:42;;;;;;;19.33;8.00;;;;;;;16.53;86.54;101430.00;5074209;28;20044;-67
2021/08/10 07:20:17;;;;;;;20.05;8.27;;;;;;;16.61;86.78;101435.31;5054068;28;20049;-68
2021/08/10 07:22:45;;;;;;;22.27;8.98;;;;;;;16.73;86.76;101430.38;5054914;28;20095;-67
2021/08/10 07:25:13;;;;;;;17.67;8.32;;;;;;;16.71;86.61;101427.88;5054232;28;20044;-67
2021/08/10 07:27:41;;;;;;;19.73;8.23;;;;;;;16.75;84.85;101431.84;5052504;28;20136;-67
2021/08/10 07:30:09;;;;;;;20.33;8.00;;;;;;;16.89;84.23;101432.97;5053009;28;20055;-67
2021/08/10 07:32:38;;;;;;;19.10;7.65;;;;;;;16.96;84.44;101433.91;5053051;28;20358;-67
2021/08/10 07:35:06;;;;;;;18.73;7.97;;;;;;;17.10;84.28;101437.69;5036573;28;20057;-67
2021/08/10 07:37:38;;;;;;;18.02;7.80;;;;;;;17.10;84.45;101435.00;5064911;28;20040;-67
2021/08/10 07:40:08;;;;;;;18.65;7.65;;;;;;;17.21;85.75;101433.72;5073961;28;20041;-67
2021/08/10 07:42:35;;;;;;;18.42;8.68;;;;;;;17.22;85.12;101430.84;5073698;28;20128;-67
2021/08/10 07:45:04;;;;;;;21.08;8.15;;;;;;;17.18;84.34;101434.09;5073977;28;20040;-67
2021/08/10 07:47:32;;;;;;;17.45;7.13;;;;;;;17.44;82.27;101431.84;5060788;28;20045;-67
2021/08/10 07:49:58;;;;;;;13.93;6.05;;;;;;;17.51;81.81;101436.47;5078564;28;20047;-67
2021/08/10 07:52:26;;;;;;;15.60;6.03;;;;;;;17.54;78.34;101438.78;5052841;28;20049;-67
2021/08/10 07:54:52;;;;;;;15.25;6.25;;;;;;;17.46;81.25;101440.53;5073848;28;20051;-67
2021/08/10 07:57:20;;;;;;;20.98;5.80;;;;;;;17.37;79.45;101443.47;5072398;28;20432;-67
2021/08/10 07:59:47;;;;;;;15.77;6.43;;;;;;;17.38;79.46;101437.09;5073491;28;20106;-67
2021/08/10 08:02:18;;;;;;;18.00;5.78;;;;;;;17.48;79.13;101439.50;5073462;28;20045;-69
2021/08/10 08:04:45;;;;;;;15.48;5.95;;;;;;;17.57;79.18;101433.91;5056144;28;20124;-68
2021/08/10 08:07:12;;;;;;;19.88;5.80;;;;;;;17.53;79.65;101432.56;5070875;28;20079;-68
2021/08/10 08:09:40;;;;;;;15.80;6.25;;;;;;;17.59;79.35;101431.84;5076346;28;20501;-68
2021/08/10 08:12:07;;;;;;;17.00;6.20;;;;;;;17.63;79.95;101435.00;5078399;28;20048;-68
2021/08/10 08:14:34;;;;;;;12.10;5.35;;;;;;;17.68;76.90;101421.03;5078282;28;20044;-68
2021/08/10 08:17:01;;;;;;;11.65;4.65;;;;;;;17.83;75.75;101422.69;5073420;28;20052;-68
2021/08/10 08:19:29;;;;;;;15.70;5.22;;;;;;;17.80;77.42;101416.88;5073260;28;20036;-68
2021/08/10 08:21:58;;;;;;;19.40;5.80;;;;;;;17.80;80.88;101422.22;5071597;28;20206;-68
2021/08/10 08:24:24;;;;;;;14.90;5.00;;;;;;;17.80;75.89;101400.75;5072524;28;20033;-68
2021/08/10 08:26:52;;;;;;;15.05;5.70;;;;;;;17.93;80.09;101413.56;5071031;28;20072;-69
2021/08/10 08:29:19;;;;;;;13.80;5.07;;;;;;;17.99;76.68;101413.66;5080969;28;20028;-68
2021/08/10 08:31:45;;;;;;;17.42;5.28;;;;;;;18.02;78.48;101415.13;5054494;28;20448;-68
2021/08/10 08:34:14;;;;;;;12.80;5.35;;;;;;;18.14;76.60;101418.19;5068270;28;20041;-68
2021/08/10 08:36:42;;;;;;;16.00;5.25;;;;;;;18.26;75.99;101413.97;5070886;28;20724;-68
2021/08/10 08:39:10;;;;;;;12.75;5.38;;;;;;;18.33;77.24;101409.50;5072371;28;20210;-68
2021/08/10 08:41:37;;;;;;;12.43;5.10;;;;;;;18.50;78.27;101420.03;5070933;28;20075;-69
2021/08/10 08:44:04;;;;;;;12.68;5.05;;;;;;;18.44;74.04;101410.88;5071341;28;20040;-69
2021/08/10 08:46:32;;;;;;;16.13;5.13;;;;;;;18.51;74.79;101408.25;5071259;28;20041;-69
2021/08/10 08:49:01;;;;;;;12.40;4.93;;;;;;;18.40;73.34;101412.28;5071171;28;20060;-68
2021/08/10 08:51:33;;;;;;;14.30;5.05;;;;;;;18.57;73.84;101412.88;5071826;28;20064;-68
2021/08/10 08:54:06;;;;;;;12.02;4.93;;;;;;;18.59;75.07;101418.88;5071893;28;20105;-68
2021/08/10 08:56:37;;;;;;;11.98;4.80;;;;;;;18.46;76.09;101422.25;5072069;28;20048;-64
2021/08/10 08:59:05;;;;;;;16.13;6.60;;;;;;;18.55;74.61;101422.97;5071556;28;20032;-64
2021/08/10 09:01:37;;;;;;;14.60;4.65;;;;;;;18.65;75.10;101422.69;5070559;28;20044;-69
2021/08/10 09:04:08;;;;;;;13.05;5.00;;;;;;;18.64;74.45;101421.81;5054490;28;20105;-69
2021/08/10 09:06:38;;;;;;;16.42;5.55;;;;;;;18.82;73.22;101423.28;5068478;28;20766;-70
2021/08/10 09:09:22;;;;;;;14.85;5.47;;;;;;;18.67;75.98;101421.47;5071446;28;20043;-70
2021/08/10 09:11:56;;;;;;;12.65;4.90;;;;;;;18.65;73.37;101423.50;5070318;28;20041;-69
2021/08/10 09:14:25;;;;;;;12.45;5.07;;;;;;;18.63;75.23;101417.50;5050503;28;20406;-69
2021/08/10 09:17:09;;;;;;;9.70;4.55;;;;;;;18.44;73.81;101420.78;5066465;28;20094;-69
2021/08/10 09:19:54;;;;;;;12.90;4.32;;;;;;;18.39;72.98;101416.81;5070655;28;20040;-70
2021/08/10 09:22:28;;;;;;;14.23;4.60;;;;;;;18.33;73.26;101424.78;5071402;28;20040;-69
2021/08/10 09:25:14;;;;;;;20.52;10.93;;;;;;;18.19;73.59;101419.28;5071126;28;20044;-69
2021/08/10 09:27:42;;;;;;;14.38;4.60;;;;;;;18.01;76.18;101405.41;5070792;28;20076;-69
2021/08/10 09:30:15;;;;;;;18.30;10.00;;;;;;;18.43;73.16;101398.47;5073013;28;20086;-69
2021/08/10 09:33:00;;;;;;;15.80;4.88;;;;;;;18.37;72.16;101380.41;5071504;28;20048;-69
2021/08/10 09:35:36;;;;;;;14.82;4.20;;;;;;;18.52;72.42;101383.91;5069876;28;20101;-70
2021/08/10 09:38:11;;;;;;;13.20;4.13;;;;;;;18.54;72.13;101391.78;5070156;28;20040;-70
2021/08/10 09:40:43;;;;;;;10.98;3.90;;;;;;;18.78;73.38;101393.25;5069503;28;20040;-70
2021/08/10 09:43:35;;;;;;;18.88;5.00;;;;;;;18.97;70.38;101389.94;5037421;28;20140;-71
2021/08/10 09:46:11;;;;;;;11.27;4.60;;;;;;;19.28;73.21;101396.81;5071052;28;20043;-70
2021/08/10 09:48:41;;;;;;;12.88;4.40;;;;;;;19.32;70.37;101406.13;5069864;28;20044;-70
2021/08/10 09:51:13;;;;;;;11.88;4.82;;;;;;;19.36;69.36;101395.81;5073121;28;20047;-70
2021/08/10 09:53:42;;;;;;;11.90;4.15;;;;;;;19.32;69.35;101406.13;5080831;28;20131;-70
2021/08/10 09:56:10;;;;;;;14.95;6.18;;;;;;;19.33;70.86;101401.59;5063179;28;20044;-69
2021/08/10 09:58:58;;;;;;;11.95;4.57;;;;;;;19.44;70.90;101400.22;5072405;28;20058;-70
2021/08/10 10:01:31;;;;;;;12.73;4.35;;;;;;;19.30;69.69;101408.19;5086697;28;20119;-69
2021/08/10 10:04:18;;;;;;;11.55;4.45;;;;;;;19.34;71.31;101406.78;5071146;28;20174;-68
2021/08/10 10:06:53;;;;;;;15.25;4.30;;;;;;;19.40;70.19;101399.78;5071937;28;20051;-68
2021/08/10 10:09:22;;;;;;;11.90;4.55;;;;;;;19.31;70.40;101404.47;5071341;28;20037;-68
2021/08/10 10:11:50;;;;;;;12.65;4.43;;;;;;;19.48;69.16;101405.00;5074952;28;20041;-68
2021/08/10 10:14:22;;;;;;;10.65;4.22;;;;;;;19.51;67.05;101401.09;5073845;28;20128;-68
2021/08/10 10:16:58;;;;;;;13.68;4.40;;;;;;;19.56;67.64;101396.78;5074145;28;20163;-67
2021/08/10 10:19:50;;;;;;;9.98;4.00;;;;;;;19.83;66.20;101396.09;5075148;28;20036;-68
2021/08/10 10:23:04;;;;;;;15.15;4.63;;;;;;;19.96;64.96;101396.19;5075965;28;20039;-68
2021/08/10 10:26:18;;;;;;;12.43;4.18;;;;;;;20.28;64.87;101397.34;5074472;28;20039;-67
2021/08/10 10:29:14;;;;;;;12.98;3.90;;;;;;;20.60;64.53;101394.13;5072339;28;20109;-68
2021/08/10 10:32:20;;;;;;;12.65;3.88;;;;;;;20.40;66.58;101397.59;5075198;28;20044;-67
2021/08/10 10:35:24;;;;;;;12.10;4.22;;;;;;;20.73;64.04;101402.25;5077677;28;20040;-68
2021/08/10 10:38:09;;;;;;;12.60;4.05;;;;;;;20.71;63.54;101407.84;5074788;28;20051;-68
2021/08/10 10:41:13;;;;;;;17.05;6.55;;;;;;;20.85;61.17;101403.28;5073616;28;20051;-68
2021/08/10 10:43:51;;;;;;;15.93;4.80;;;;;;;20.47;62.18;101395.75;5056082;28;20044;-67
2021/08/10 10:46:29;;;;;;;12.30;4.93;;;;;;;20.31;62.46;101406.88;5056816;28;20106;-68
2021/08/10 10:48:56;;;;;;;16.20;4.57;;;;;;;20.24;63.90;101397.94;5073985;28;20127;-68
2021/08/10 10:51:26;;;;;;;13.30;4.70;;;;;;;20.36;63.63;101398.22;5072215;28;20032;-67
2021/08/10 10:54:22;;;;;;;13.15;4.15;;;;;;;20.58;63.36;101394.31;5056415;28;20059;-67
2021/08/10 10:56:51;;;;;;;12.25;4.55;;;;;;;20.45;60.90;101395.13;5071623;28;20091;-68
2021/08/10 10:59:24;;;;;;;14.32;4.57;;;;;;;20.62;62.37;101392.91;5073681;28;20040;-67
2021/08/10 11:01:52;;;;;;;15.15;4.18;;;;;;;20.86;62.50;101396.03;5055545;28;20058;-68
2021/08/10 11:04:19;;;;;;;12.52;4.53;;;;;;;20.98;62.63;101393.56;5057299;28;20041;-68
2021/08/10 11:06:49;;;;;;;14.63;4.55;;;;;;;20.83;62.92;101393.75;5071452;28;20516;-68
2021/08/10 11:12:54;;;;;;;13.73;4.18;;;;;;;21.21;60.89;101396.66;5089465;28;20404;-67
2021/08/10 11:16:10;;;;;;;10.77;4.45;;;;;;;21.51;60.03;101387.31;5087602;28;20040;-67
2021/08/10 11:22:47;;;;;;;12.60;4.35;;;;;;;21.71;59.53;101379.97;5088762;28;20110;-73
2021/08/10 11:25:48;;;;;;;13.35;4.82;;;;;;;21.85;60.11;101378.91;5074185;28;20123;-72
2021/08/10 11:28:52;;;;;;;13.15;4.55;;;;;;;22.00;58.08;101378.63;5092001;28;20067;-73
2021/08/10 11:31:47;;;;;;;11.20;4.30;;;;;;;21.90;58.83;101377.44;5083316;28;20032;-73
2021/08/10 11:34:37;;;;;;;12.65;4.75;;;;;;;22.01;57.26;101369.50;5083720;28;20040;-73
2021/08/10 11:37:22;;;;;;;12.93;4.22;;;;;;;22.10;57.53;101367.34;5086628;28;20044;-73
2021/08/10 11:40:13;;;;;;;10.18;4.28;;;;;;;22.47;56.19;101374.91;5087133;28;20119;-73
2021/08/10 11:42:59;;;;;;;15.32;4.15;;;;;;;22.74;57.26;101370.94;5088195;28;20063;-72
2021/08/10 11:46:05;;;;;;;10.68;4.35;;;;;;;22.82;55.10;101359.03;5074304;28;20032;-72
2021/08/10 11:49:00;;;;;;;11.93;4.68;;;;;;;22.86;54.48;101367.53;5087934;28;20036;-72
2021/08/10 11:52:03;;;;;;;13.65;5.03;;;;;;;22.59;55.41;101365.00;5089137;28;20452;-72
2021/08/10 11:55:04;;;;;;;13.02;3.92;;;;;;;22.46;53.49;101367.81;5087210;28;20036;-73